Weather at RAF Llandow Air Base [CLOSED]

Public forecast

Using degrees Celsius for public forecast. Weather courtesy of forecast.io.

Closest aviation weather report (METAR) to RAF Llandow Air Base

Closest report is St. Athan Airport, 3.0 nm (5.5 km) SE. Retrieved 2021/06/25 11:50 UTC (27 minutes ago):

EGSY 251150Z 27014KT 9999 FEW024 BKN033 14/09 Q1018

Closest aviation forecast (TAF) to RAF Llandow Air Base

Closest forecast is Cardiff International Airport, 6.2 nm (11.6 km) ESE. Retrieved 2021/06/25 12:00 UTC (17 minutes ago):

TAF EGFF 251100Z 2512/2612 28014KT 9999 BKN030 PROB40 TEMPO 2514/2608 6000 SHRA BKN009 BECMG 2518/2521 01008KT BECMG 2606/2609 08010KT